createdAt,value
2018-08-31T00:00:18.386Z,23.42
2018-08-31T00:01:18.349Z,23.43
2018-08-31T00:02:18.309Z,23.42
2018-08-31T00:03:18.265Z,23.32
2018-08-31T00:04:18.227Z,23.39
2018-08-31T00:05:18.176Z,23.38
2018-08-31T00:06:18.136Z,23.42
2018-08-31T00:07:18.090Z,23.43
2018-08-31T00:08:18.050Z,23.42
2018-08-31T00:09:18.017Z,23.42
2018-08-31T00:10:17.960Z,23.45
2018-08-31T00:11:17.925Z,23.38
2018-08-31T00:12:17.877Z,23.39
2018-08-31T00:13:17.837Z,23.40
2018-08-31T00:14:17.792Z,23.46
2018-08-31T00:15:17.754Z,23.38
2018-08-31T00:16:17.709Z,23.40
2018-08-31T00:17:17.670Z,23.42
2018-08-31T00:18:17.622Z,23.45
2018-08-31T00:19:17.583Z,23.45
2018-08-31T00:20:17.542Z,23.45
2018-08-31T00:21:17.496Z,23.46
2018-08-31T00:22:17.455Z,23.45
2018-08-31T00:23:17.413Z,23.47
2018-08-31T00:24:17.368Z,23.46
2018-08-31T00:25:17.326Z,23.43
2018-08-31T00:26:17.285Z,23.43
2018-08-31T00:27:17.243Z,23.52
2018-08-31T00:28:17.202Z,23.43
2018-08-31T00:29:17.157Z,23.40
2018-08-31T00:30:17.107Z,23.45
2018-08-31T00:31:17.080Z,23.42
2018-08-31T00:32:17.038Z,23.43
2018-08-31T00:33:16.987Z,23.43
2018-08-31T00:34:16.946Z,23.42
2018-08-31T00:35:16.903Z,23.45
2018-08-31T00:36:16.872Z,23.47
2018-08-31T00:37:16.823Z,23.45
2018-08-31T00:38:16.771Z,23.43
2018-08-31T00:39:16.723Z,23.43
2018-08-31T00:40:16.690Z,23.47
2018-08-31T00:41:16.647Z,23.52
2018-08-31T00:42:16.611Z,23.47
2018-08-31T00:43:16.554Z,23.43
2018-08-31T00:44:16.519Z,23.50
2018-08-31T00:45:16.468Z,23.47
2018-08-31T00:46:16.436Z,23.49
2018-08-31T00:47:16.389Z,23.45
2018-08-31T00:48:16.350Z,23.45
2018-08-31T00:49:16.308Z,23.46
2018-08-31T00:50:16.264Z,23.49
2018-08-31T00:51:16.221Z,23.43
2018-08-31T00:52:16.180Z,23.40
2018-08-31T00:53:16.136Z,23.46
2018-08-31T00:54:16.094Z,23.47
2018-08-31T00:55:16.050Z,23.47
2018-08-31T00:56:16.009Z,23.46
2018-08-31T00:57:15.967Z,23.42
2018-08-31T00:58:15.926Z,23.45
2018-08-31T00:59:15.885Z,23.46
2018-08-31T01:00:15.841Z,23.46
2018-08-31T01:01:15.795Z,23.46
2018-08-31T01:02:15.755Z,23.55
2018-08-31T01:03:15.712Z,23.46
2018-08-31T01:04:15.671Z,23.50
2018-08-31T01:05:15.631Z,23.43
2018-08-31T01:06:15.589Z,23.45
2018-08-31T01:07:15.541Z,23.46
2018-08-31T01:08:15.500Z,23.47
2018-08-31T01:09:15.456Z,23.45
2018-08-31T01:10:15.415Z,23.45
2018-08-31T01:11:15.373Z,23.46
2018-08-31T01:12:15.332Z,23.49
2018-08-31T01:13:15.292Z,23.43
2018-08-31T01:14:15.242Z,23.46
2018-08-31T01:15:15.203Z,23.39
2018-08-31T01:16:15.152Z,23.50
2018-08-31T01:17:15.122Z,23.42
2018-08-31T01:18:15.078Z,23.40
2018-08-31T01:19:15.032Z,23.38
2018-08-31T01:20:14.994Z,23.47
2018-08-31T01:21:14.946Z,23.42
2018-08-31T01:22:14.906Z,23.45
2018-08-31T01:23:14.860Z,23.45
2018-08-31T01:24:14.824Z,23.55
2018-08-31T01:25:14.782Z,23.40
2018-08-31T01:26:14.735Z,23.45
2018-08-31T01:27:14.700Z,23.45
2018-08-31T01:28:14.651Z,23.43
2018-08-31T01:29:14.610Z,23.35
2018-08-31T01:30:14.565Z,23.43
2018-08-31T01:31:14.523Z,23.45
2018-08-31T01:32:14.487Z,23.40
2018-08-31T01:33:14.446Z,23.39
2018-08-31T01:34:14.389Z,23.45
2018-08-31T01:35:14.352Z,23.47
2018-08-31T01:36:14.316Z,23.38
2018-08-31T01:37:14.266Z,23.53
2018-08-31T01:38:14.225Z,23.40
2018-08-31T01:39:14.183Z,23.43
2018-08-31T01:40:14.141Z,23.43
2018-08-31T01:41:14.097Z,23.40
2018-08-31T01:42:14.052Z,23.49
2018-08-31T01:43:14.014Z,23.47
2018-08-31T01:44:13.969Z,23.43
2018-08-31T01:45:13.921Z,23.42
2018-08-31T01:46:13.888Z,23.42
2018-08-31T01:47:13.841Z,23.45
2018-08-31T01:48:13.803Z,23.43
2018-08-31T01:49:13.758Z,23.47
2018-08-31T01:50:13.713Z,23.49
2018-08-31T01:51:13.676Z,23.50
2018-08-31T01:52:13.631Z,23.49
2018-08-31T01:53:13.590Z,23.42
2018-08-31T01:54:13.549Z,23.46
2018-08-31T01:55:13.504Z,23.43
2018-08-31T01:56:13.465Z,23.47
2018-08-31T01:57:13.418Z,23.45
2018-08-31T01:58:13.367Z,23.43
2018-08-31T01:59:13.338Z,23.49
2018-08-31T02:00:13.290Z,23.52
2018-08-31T02:01:13.247Z,23.42
2018-08-31T02:02:13.206Z,23.47
2018-08-31T02:03:13.161Z,23.52
2018-08-31T02:04:13.197Z,23.49
2018-08-31T02:05:13.081Z,23.42
2018-08-31T02:06:13.034Z,23.43
2018-08-31T02:07:13.003Z,23.43
2018-08-31T02:08:12.951Z,23.40
2018-08-31T02:09:12.909Z,23.39
2018-08-31T02:10:12.862Z,23.50
2018-08-31T02:11:12.824Z,23.47
2018-08-31T02:12:12.771Z,23.40
2018-08-31T02:13:12.736Z,23.40
2018-08-31T02:14:12.685Z,23.40
2018-08-31T02:15:12.652Z,23.43
2018-08-31T02:16:12.611Z,23.43
2018-08-31T02:17:12.569Z,23.39
2018-08-31T02:18:12.527Z,23.40
2018-08-31T02:19:12.483Z,23.39
2018-08-31T02:20:12.447Z,23.40
2018-08-31T02:21:12.399Z,23.40
2018-08-31T02:22:12.357Z,23.35
2018-08-31T02:23:12.313Z,23.32
2018-08-31T02:24:12.271Z,23.38
2018-08-31T02:25:12.229Z,23.34
2018-08-31T02:26:12.184Z,23.40
2018-08-31T02:27:12.137Z,23.29
2018-08-31T02:28:12.107Z,23.31
2018-08-31T02:29:12.049Z,23.32
2018-08-31T02:30:12.018Z,23.32
2018-08-31T02:31:11.972Z,23.35
2018-08-31T02:32:11.933Z,23.29
2018-08-31T02:33:11.887Z,23.32
2018-08-31T02:34:11.845Z,23.32
2018-08-31T02:35:11.793Z,23.32
2018-08-31T02:36:11.764Z,23.29
2018-08-31T02:37:11.720Z,23.31
2018-08-31T02:38:11.682Z,23.35
2018-08-31T02:39:11.694Z,23.29
2018-08-31T02:40:11.592Z,23.29
2018-08-31T02:41:11.545Z,23.35
2018-08-31T02:42:11.506Z,23.27
2018-08-31T02:43:11.458Z,23.42
2018-08-31T02:44:11.420Z,23.32
2018-08-31T02:45:11.379Z,23.31
2018-08-31T02:46:11.338Z,23.29
2018-08-31T02:47:11.295Z,23.29
2018-08-31T02:48:11.251Z,23.32
2018-08-31T02:49:11.207Z,23.31
2018-08-31T02:50:11.165Z,23.29
2018-08-31T02:51:11.129Z,23.32
2018-08-31T02:52:11.079Z,23.35
2018-08-31T02:53:11.038Z,23.31
2018-08-31T02:54:10.990Z,23.32
2018-08-31T02:55:10.951Z,23.39
2018-08-31T02:56:10.910Z,23.32
2018-08-31T02:57:10.865Z,23.34
2018-08-31T02:58:10.825Z,23.29
2018-08-31T02:59:10.781Z,23.32
2018-08-31T03:00:10.740Z,23.35
2018-08-31T03:01:10.694Z,23.32
2018-08-31T03:02:10.651Z,23.32
2018-08-31T03:03:10.612Z,23.39
2018-08-31T03:04:10.565Z,23.35
2018-08-31T03:05:10.533Z,23.26
2018-08-31T03:06:10.484Z,23.32
2018-08-31T03:07:10.442Z,23.39
2018-08-31T03:08:10.401Z,23.29
2018-08-31T03:09:10.356Z,23.29
2018-08-31T03:10:10.315Z,23.34
2018-08-31T03:11:10.276Z,23.31
2018-08-31T03:12:10.230Z,23.35
2018-08-31T03:13:10.185Z,23.29
2018-08-31T03:14:10.147Z,23.34
2018-08-31T03:15:10.102Z,23.32
2018-08-31T03:16:10.061Z,23.27
2018-08-31T03:17:10.019Z,23.32
2018-08-31T03:18:09.974Z,23.32
2018-08-31T03:19:09.929Z,23.32
2018-08-31T03:20:09.888Z,23.34
2018-08-31T03:21:09.885Z,23.32
2018-08-31T03:22:09.800Z,23.31
2018-08-31T03:23:09.759Z,23.32
2018-08-31T03:24:09.721Z,23.32
2018-08-31T03:25:09.676Z,23.29
2018-08-31T03:26:09.629Z,23.29
2018-08-31T03:27:09.591Z,23.35
2018-08-31T03:28:09.550Z,23.32
2018-08-31T03:29:09.511Z,23.31
2018-08-31T03:30:09.460Z,23.32
2018-08-31T03:31:09.418Z,23.27
2018-08-31T03:32:09.387Z,23.32
2018-08-31T03:33:09.330Z,23.32
2018-08-31T03:34:09.291Z,23.32
2018-08-31T03:35:09.249Z,23.29
2018-08-31T03:36:09.211Z,23.29
2018-08-31T03:37:09.172Z,23.29
2018-08-31T03:38:09.125Z,23.22
2018-08-31T03:39:09.080Z,23.31
2018-08-31T03:40:09.036Z,23.35
2018-08-31T03:41:08.994Z,23.34
2018-08-31T03:42:08.953Z,23.26
2018-08-31T03:43:08.910Z,23.34
2018-08-31T03:44:08.866Z,23.40
2018-08-31T03:45:08.833Z,23.26
2018-08-31T03:46:08.781Z,23.34
2018-08-31T03:47:08.740Z,23.29
2018-08-31T03:48:08.695Z,23.27
2018-08-31T03:49:08.653Z,23.34
2018-08-31T03:50:08.611Z,23.27
2018-08-31T03:51:08.573Z,23.26
2018-08-31T03:52:08.526Z,23.38
2018-08-31T03:53:08.484Z,23.29
2018-08-31T03:54:08.441Z,23.34
2018-08-31T03:55:08.396Z,23.34
2018-08-31T03:56:08.352Z,23.32
2018-08-31T03:57:08.310Z,23.29
2018-08-31T03:58:08.268Z,23.32
2018-08-31T03:59:08.228Z,23.32
2018-08-31T04:00:08.190Z,23.29
2018-08-31T04:01:08.142Z,23.31
2018-08-31T04:02:08.091Z,23.29
2018-08-31T04:03:08.059Z,23.32
2018-08-31T04:04:08.013Z,23.29
2018-08-31T04:05:07.980Z,23.29
2018-08-31T04:06:07.936Z,23.34
2018-08-31T04:07:07.888Z,23.34
2018-08-31T04:08:07.846Z,23.32
2018-08-31T04:09:07.809Z,23.29
2018-08-31T04:10:07.788Z,23.32
2018-08-31T04:11:07.715Z,23.29
2018-08-31T04:12:07.677Z,23.24
2018-08-31T04:13:07.628Z,23.40
2018-08-31T04:14:07.580Z,23.31
2018-08-31T04:15:07.605Z,23.39
2018-08-31T04:16:07.504Z,23.29
2018-08-31T04:17:07.461Z,23.29
2018-08-31T04:18:07.420Z,23.29
2018-08-31T04:19:07.377Z,23.27
2018-08-31T04:20:07.336Z,23.32
2018-08-31T04:21:07.292Z,23.34
2018-08-31T04:22:07.260Z,23.29
2018-08-31T04:23:07.210Z,23.32
2018-08-31T04:24:07.162Z,23.32
2018-08-31T04:25:07.122Z,23.34
2018-08-31T04:26:07.078Z,23.20
2018-08-31T04:27:07.035Z,23.27
2018-08-31T04:28:06.991Z,23.27
2018-08-31T04:29:06.949Z,23.22
2018-08-31T04:30:06.907Z,23.27
2018-08-31T04:31:06.862Z,23.26
2018-08-31T04:32:06.824Z,23.27
2018-08-31T04:33:06.779Z,23.26
2018-08-31T04:34:06.820Z,23.20
2018-08-31T04:35:06.696Z,23.26
2018-08-31T04:36:06.651Z,23.29
2018-08-31T04:37:06.611Z,23.29
2018-08-31T04:38:06.568Z,23.35
2018-08-31T04:39:06.524Z,23.27
2018-08-31T04:40:06.493Z,23.27
2018-08-31T04:41:06.443Z,23.27
2018-08-31T04:42:06.401Z,23.29
2018-08-31T04:43:06.362Z,23.31
2018-08-31T04:44:06.312Z,23.29
2018-08-31T04:45:06.269Z,23.29
2018-08-31T04:46:06.229Z,23.26
2018-08-31T04:47:06.180Z,23.26
2018-08-31T04:48:06.142Z,23.26
2018-08-31T04:49:06.098Z,23.29
2018-08-31T04:50:06.059Z,23.26
2018-08-31T04:51:06.013Z,23.26
2018-08-31T04:52:05.971Z,23.29
2018-08-31T04:54:05.885Z,23.23
2018-08-31T04:55:05.845Z,23.29
2018-08-31T04:56:05.803Z,23.27
2018-08-31T04:57:05.759Z,23.22
2018-08-31T04:58:05.721Z,23.23
2018-08-31T04:59:05.678Z,23.32
2018-08-31T05:00:05.640Z,23.27
2018-08-31T05:01:05.588Z,23.26
2018-08-31T05:02:05.550Z,23.29
2018-08-31T05:03:05.504Z,23.32
2018-08-31T05:04:05.460Z,23.26
2018-08-31T05:05:05.420Z,23.34
2018-08-31T05:06:05.376Z,23.34
2018-08-31T05:07:05.335Z,23.29
2018-08-31T05:08:05.292Z,23.34
2018-08-31T05:09:05.247Z,23.35
2018-08-31T05:10:05.206Z,23.27
2018-08-31T05:11:05.174Z,23.35
2018-08-31T05:12:05.116Z,23.32
2018-08-31T05:13:05.078Z,23.34
2018-08-31T05:14:05.042Z,23.31
2018-08-31T05:15:04.988Z,23.26
2018-08-31T05:16:05.011Z,23.29
2018-08-31T05:17:04.911Z,23.35
2018-08-31T05:18:04.867Z,23.22
2018-08-31T05:19:04.820Z,23.23
2018-08-31T05:20:04.778Z,23.24
2018-08-31T05:21:04.738Z,23.29
2018-08-31T05:22:04.696Z,23.22
2018-08-31T05:23:04.682Z,23.20
2018-08-31T05:24:04.612Z,23.27
2018-08-31T05:25:04.594Z,23.34
2018-08-31T05:26:04.524Z,23.20
2018-08-31T05:27:04.482Z,23.29
2018-08-31T05:28:04.441Z,23.29
2018-08-31T05:29:04.396Z,23.29
2018-08-31T05:30:04.357Z,23.27
2018-08-31T05:31:04.312Z,23.31
2018-08-31T05:32:04.268Z,23.38
2018-08-31T05:33:04.228Z,23.34
2018-08-31T05:34:04.220Z,23.35
2018-08-31T05:35:04.140Z,23.40
2018-08-31T05:36:04.105Z,23.40
2018-08-31T05:37:04.065Z,23.38
2018-08-31T05:38:04.020Z,23.45
2018-08-31T05:39:03.988Z,23.43
2018-08-31T05:40:03.927Z,23.47
2018-08-31T05:41:03.886Z,23.50
2018-08-31T05:42:03.845Z,23.50
2018-08-31T05:43:03.803Z,23.49
2018-08-31T05:44:03.760Z,23.52
2018-08-31T05:45:03.714Z,23.45
2018-08-31T05:46:03.669Z,23.46
2018-08-31T05:47:03.633Z,23.52
2018-08-31T05:48:03.594Z,23.52
2018-08-31T05:49:03.554Z,23.62
2018-08-31T05:50:03.503Z,23.50
2018-08-31T05:51:03.470Z,23.50
2018-08-31T05:52:03.419Z,23.53
2018-08-31T05:53:03.373Z,23.58
2018-08-31T05:54:03.329Z,23.62
2018-08-31T05:55:03.293Z,23.61
2018-08-31T05:56:03.249Z,23.53
2018-08-31T05:57:03.211Z,23.58
2018-08-31T05:58:03.159Z,23.61
2018-08-31T05:59:03.118Z,23.61
2018-08-31T06:00:03.081Z,23.60
2018-08-31T06:01:03.031Z,23.53
2018-08-31T06:02:03.012Z,23.50
2018-08-31T06:03:02.950Z,23.57
2018-08-31T06:04:02.909Z,23.52
2018-08-31T06:05:02.883Z,23.50
2018-08-31T06:06:02.832Z,23.49
2018-08-31T06:07:02.789Z,23.47
2018-08-31T06:08:02.744Z,23.47
2018-08-31T06:09:02.704Z,23.47
2018-08-31T06:10:02.659Z,23.40
2018-08-31T06:11:02.615Z,23.38
2018-08-31T06:12:02.718Z,23.46
2018-08-31T06:13:02.525Z,23.43
2018-08-31T06:14:02.490Z,23.45
2018-08-31T06:15:02.430Z,23.38
2018-08-31T06:16:02.398Z,23.35
2018-08-31T06:17:02.353Z,23.27
2018-08-31T06:18:02.312Z,23.34
2018-08-31T06:19:02.273Z,23.31
2018-08-31T06:20:02.226Z,23.31
2018-08-31T06:21:02.225Z,23.42
2018-08-31T06:22:02.137Z,23.39
2018-08-31T06:23:02.101Z,23.35
2018-08-31T06:24:02.054Z,23.31
2018-08-31T06:25:02.012Z,23.39
2018-08-31T06:26:01.973Z,23.35
2018-08-31T06:27:02.023Z,23.35
2018-08-31T06:28:02.015Z,23.42
2018-08-31T06:29:01.986Z,23.45
2018-08-31T06:30:01.802Z,23.40
2018-08-31T06:31:02.012Z,23.39
2018-08-31T06:32:01.727Z,23.45
2018-08-31T06:33:01.676Z,23.49
2018-08-31T06:34:01.742Z,23.42
2018-08-31T06:35:01.652Z,23.38
2018-08-31T06:36:01.557Z,23.50
2018-08-31T06:37:01.506Z,23.43
2018-08-31T06:38:01.610Z,23.45
2018-08-31T06:39:01.426Z,23.46
2018-08-31T06:40:01.378Z,23.45
2018-08-31T06:41:01.348Z,23.47
2018-08-31T06:42:01.304Z,23.43
2018-08-31T06:43:01.248Z,23.43
2018-08-31T06:44:01.208Z,23.45
2018-08-31T06:45:01.163Z,23.47
2018-08-31T06:46:01.127Z,23.45
2018-08-31T06:47:01.087Z,23.47
2018-08-31T06:48:01.045Z,23.47
2018-08-31T06:49:00.987Z,23.43
2018-08-31T06:50:00.953Z,23.46
2018-08-31T06:51:00.901Z,23.42
2018-08-31T06:52:00.872Z,23.45
2018-08-31T06:53:00.820Z,23.49
2018-08-31T06:54:00.785Z,23.49
2018-08-31T06:55:00.740Z,23.43
2018-08-31T06:56:00.695Z,23.50
2018-08-31T06:57:00.653Z,23.50
2018-08-31T06:58:00.612Z,23.47
2018-08-31T06:59:00.573Z,23.50
2018-08-31T07:00:00.535Z,23.52
2018-08-31T07:01:00.483Z,23.45
2018-08-31T07:02:00.451Z,23.50
2018-08-31T07:03:00.432Z,23.50
2018-08-31T07:04:00.356Z,23.49
2018-08-31T07:05:00.314Z,23.50
2018-08-31T07:06:00.273Z,23.47
2018-08-31T07:07:00.227Z,23.50
2018-08-31T07:08:00.185Z,23.50
2018-08-31T07:09:00.144Z,23.47
2018-08-31T07:10:00.103Z,23.53
2018-08-31T07:11:00.057Z,23.47
2018-08-31T07:12:00.046Z,23.49
2018-08-31T07:12:59.979Z,23.49
2018-08-31T07:13:59.934Z,23.50
2018-08-31T07:14:59.886Z,23.49
2018-08-31T07:15:59.836Z,23.53
2018-08-31T07:16:59.804Z,23.50
2018-08-31T07:17:59.756Z,23.50
2018-08-31T07:18:59.720Z,23.47
2018-08-31T07:19:59.673Z,23.49
2018-08-31T07:20:59.632Z,23.49
2018-08-31T07:21:59.594Z,23.60
2018-08-31T07:22:59.548Z,23.47
2018-08-31T07:23:59.529Z,23.49
2018-08-31T07:24:59.458Z,23.50
2018-08-31T07:25:59.430Z,23.46
2018-08-31T07:26:59.380Z,23.49
2018-08-31T07:27:59.334Z,23.50
2018-08-31T07:28:59.296Z,23.55
2018-08-31T07:29:59.253Z,23.50
2018-08-31T07:30:59.211Z,23.53
2018-08-31T07:31:59.169Z,23.55
2018-08-31T07:32:59.128Z,23.58
2018-08-31T07:33:59.083Z,23.49
2018-08-31T07:34:59.038Z,23.46
2018-08-31T07:35:58.994Z,23.50
2018-08-31T07:36:58.953Z,23.49
2018-08-31T07:37:58.907Z,23.58
2018-08-31T07:38:58.875Z,23.49
2018-08-31T07:39:58.826Z,23.53
2018-08-31T07:40:58.782Z,23.50
2018-08-31T07:41:58.741Z,23.55
2018-08-31T07:42:58.699Z,23.57
2018-08-31T07:43:58.654Z,23.53
2018-08-31T07:44:58.614Z,23.62
2018-08-31T07:45:58.578Z,23.53
2018-08-31T07:46:58.524Z,23.53
2018-08-31T07:47:58.593Z,23.52
2018-08-31T07:48:58.443Z,23.49
2018-08-31T07:49:58.398Z,23.53
2018-08-31T07:50:58.353Z,23.50
2018-08-31T07:51:58.312Z,23.53
2018-08-31T07:52:58.271Z,23.53
2018-08-31T07:53:58.436Z,23.53
2018-08-31T07:54:58.187Z,23.50
2018-08-31T07:55:58.145Z,23.53
2018-08-31T07:56:58.103Z,23.57
2018-08-31T07:57:58.049Z,23.58
2018-08-31T07:58:58.023Z,23.49
2018-08-31T07:59:57.978Z,23.55
2018-08-31T08:00:57.978Z,23.58
2018-08-31T08:01:57.899Z,23.58
2018-08-31T08:02:57.846Z,23.58
2018-08-31T08:03:57.812Z,23.58
2018-08-31T08:04:57.758Z,23.53
2018-08-31T08:05:57.719Z,23.55
2018-08-31T08:06:57.680Z,23.55
2018-08-31T08:07:57.635Z,23.52
2018-08-31T08:08:57.589Z,23.55
2018-08-31T08:09:57.554Z,23.50
2018-08-31T08:10:57.506Z,23.55
2018-08-31T08:11:57.471Z,23.55
2018-08-31T08:12:57.417Z,23.53
2018-08-31T08:13:57.379Z,23.58
2018-08-31T08:14:57.338Z,23.60
2018-08-31T08:15:57.287Z,23.53
2018-08-31T08:16:57.254Z,23.60
2018-08-31T08:17:57.210Z,23.57
2018-08-31T08:18:57.168Z,23.57
2018-08-31T08:19:57.125Z,23.55
2018-08-31T08:20:57.090Z,23.53
2018-08-31T08:21:57.043Z,23.58
2018-08-31T08:22:56.997Z,23.58
2018-08-31T08:23:56.963Z,23.58
2018-08-31T08:24:56.913Z,23.58
2018-08-31T08:25:56.868Z,23.58
2018-08-31T08:26:56.828Z,23.52
2018-08-31T08:27:56.786Z,23.55
2018-08-31T08:28:56.742Z,23.61
2018-08-31T08:29:56.699Z,23.58
2018-08-31T08:30:56.659Z,23.65
2018-08-31T08:31:56.614Z,23.57
2018-08-31T08:32:56.573Z,23.64
2018-08-31T08:33:56.528Z,23.57
2018-08-31T08:34:56.492Z,23.65
2018-08-31T08:35:56.480Z,23.62
2018-08-31T08:36:56.396Z,23.58
2018-08-31T08:37:56.353Z,23.61
2018-08-31T08:38:56.322Z,23.61
2018-08-31T08:39:56.270Z,23.60
2018-08-31T08:40:56.234Z,23.60
2018-08-31T08:41:56.197Z,23.60
2018-08-31T08:42:56.151Z,23.60
2018-08-31T08:43:56.105Z,23.65
2018-08-31T08:44:56.061Z,23.61
2018-08-31T08:45:56.022Z,23.58
2018-08-31T08:46:55.977Z,23.61
2018-08-31T08:47:55.932Z,23.62
2018-08-31T08:48:55.890Z,23.55
2018-08-31T08:49:55.848Z,23.60
2018-08-31T08:50:55.807Z,23.65
2018-08-31T08:51:55.765Z,23.71
2018-08-31T08:52:55.720Z,23.72
2018-08-31T08:53:55.678Z,23.71
2018-08-31T08:54:55.634Z,23.70
2018-08-31T08:55:55.596Z,23.65
2018-08-31T08:56:55.551Z,23.72
2018-08-31T08:57:55.509Z,23.72
2018-08-31T08:58:55.464Z,23.64
2018-08-31T08:59:55.432Z,23.64
2018-08-31T09:00:55.390Z,23.68
2018-08-31T09:01:55.339Z,23.64
2018-08-31T09:02:55.300Z,23.64
2018-08-31T09:03:55.255Z,23.67
2018-08-31T09:04:55.209Z,23.64
2018-08-31T09:05:55.164Z,23.67
2018-08-31T09:06:55.126Z,23.71
2018-08-31T09:07:55.084Z,23.67
2018-08-31T09:08:55.037Z,23.67
2018-08-31T09:09:55.001Z,23.70
2018-08-31T09:10:54.957Z,23.71
2018-08-31T09:11:54.950Z,23.71
2018-08-31T09:12:54.874Z,23.75
2018-08-31T09:13:54.829Z,23.70
2018-08-31T09:14:54.787Z,23.61
2018-08-31T09:15:54.742Z,23.71
2018-08-31T09:16:54.700Z,23.72
2018-08-31T09:17:54.648Z,23.71
2018-08-31T09:18:54.612Z,23.62
2018-08-31T09:19:54.576Z,23.68
2018-08-31T09:20:54.533Z,23.70
2018-08-31T09:21:54.492Z,23.64
2018-08-31T09:22:54.450Z,23.61
2018-08-31T09:23:54.395Z,23.72
2018-08-31T09:24:54.382Z,23.72
2018-08-31T09:25:54.319Z,23.70
2018-08-31T09:26:54.274Z,23.65
2018-08-31T09:27:54.233Z,23.71
2018-08-31T09:28:54.195Z,23.62
2018-08-31T09:29:54.146Z,23.67
2018-08-31T09:30:54.102Z,23.67
2018-08-31T09:31:54.073Z,23.67
2018-08-31T09:32:54.017Z,23.67
2018-08-31T09:33:53.984Z,23.64
2018-08-31T09:34:53.935Z,23.61
2018-08-31T09:35:53.893Z,23.64
2018-08-31T09:36:53.849Z,23.61
2018-08-31T09:37:53.804Z,23.70
2018-08-31T09:38:53.756Z,23.72
2018-08-31T09:39:53.724Z,23.72
2018-08-31T09:40:53.680Z,23.70
2018-08-31T09:41:53.639Z,23.68
2018-08-31T09:42:53.599Z,23.70
2018-08-31T09:43:53.605Z,23.70
2018-08-31T09:44:53.510Z,23.70
2018-08-31T09:45:53.464Z,23.62
2018-08-31T09:46:53.425Z,23.70
2018-08-31T09:47:53.383Z,23.67
2018-08-31T09:48:53.339Z,23.70
2018-08-31T09:49:53.297Z,23.68
2018-08-31T09:50:53.255Z,23.61
2018-08-31T09:51:53.214Z,23.64
2018-08-31T09:52:53.169Z,23.70
2018-08-31T09:53:53.124Z,23.65
2018-08-31T09:54:53.099Z,23.72
2018-08-31T09:55:53.054Z,23.60
2018-08-31T09:56:52.999Z,23.70
2018-08-31T09:57:52.958Z,23.62
2018-08-31T09:58:52.920Z,23.72
2018-08-31T09:59:52.871Z,23.76
2018-08-31T10:00:52.834Z,23.68
2018-08-31T10:01:52.787Z,23.65
2018-08-31T10:02:52.744Z,23.68
2018-08-31T10:03:52.703Z,23.67
2018-08-31T10:04:52.659Z,23.70
2018-08-31T10:05:52.621Z,23.71
2018-08-31T10:06:52.572Z,23.62
2018-08-31T10:07:52.522Z,23.70
2018-08-31T10:08:52.489Z,23.61
2018-08-31T10:09:52.445Z,23.65
2018-08-31T10:10:52.472Z,23.72
2018-08-31T10:11:52.361Z,23.70
2018-08-31T10:12:52.333Z,23.67
2018-08-31T10:13:52.272Z,23.64
2018-08-31T10:14:52.234Z,23.67
2018-08-31T10:15:52.187Z,23.70
2018-08-31T10:16:52.151Z,23.75
2018-08-31T10:17:52.112Z,23.67
2018-08-31T10:18:52.086Z,23.71
2018-08-31T10:19:52.021Z,23.61
2018-08-31T10:20:51.980Z,23.65
2018-08-31T10:21:51.937Z,23.72
2018-08-31T10:22:51.893Z,23.65
2018-08-31T10:23:51.852Z,23.64
2018-08-31T10:24:51.807Z,23.64
2018-08-31T10:25:51.768Z,23.64
2018-08-31T10:26:51.721Z,23.68
2018-08-31T10:27:51.709Z,23.70
2018-08-31T10:28:51.639Z,23.64
2018-08-31T10:29:51.592Z,23.72
2018-08-31T10:30:51.563Z,23.67
2018-08-31T10:31:51.512Z,23.71
2018-08-31T10:32:51.470Z,23.67
2018-08-31T10:33:51.427Z,23.68
2018-08-31T10:34:51.382Z,23.71
2018-08-31T10:35:51.343Z,23.83
2018-08-31T10:36:51.296Z,23.71
2018-08-31T10:37:51.254Z,23.70
2018-08-31T10:38:51.221Z,23.71
2018-08-31T10:39:51.172Z,23.70
2018-08-31T10:40:51.129Z,23.75
2018-08-31T10:41:51.081Z,23.68
2018-08-31T10:42:51.045Z,23.65
2018-08-31T10:43:51.006Z,23.70
2018-08-31T10:44:50.965Z,23.71
2018-08-31T10:45:50.922Z,23.64
2018-08-31T10:46:50.931Z,23.67
2018-08-31T10:47:50.836Z,23.64
2018-08-31T10:48:50.794Z,23.65
2018-08-31T10:49:50.746Z,23.61
2018-08-31T10:50:50.705Z,23.68
2018-08-31T10:51:50.660Z,23.68
2018-08-31T10:52:50.635Z,23.70
2018-08-31T10:53:50.574Z,23.67
2018-08-31T10:54:50.532Z,23.70
2018-08-31T10:55:50.535Z,23.65
2018-08-31T10:56:50.447Z,23.79
2018-08-31T10:57:50.409Z,23.71
2018-08-31T10:58:50.366Z,23.71
2018-08-31T10:59:50.319Z,23.71
2018-08-31T11:00:50.280Z,23.71
2018-08-31T11:01:50.237Z,23.68
2018-08-31T11:02:50.195Z,23.72
2018-08-31T11:03:50.150Z,23.70
2018-08-31T11:04:50.103Z,23.71
2018-08-31T11:05:50.064Z,23.68
2018-08-31T11:06:50.024Z,23.67
2018-08-31T11:07:49.986Z,23.68
2018-08-31T11:08:49.936Z,23.72
2018-08-31T11:09:49.894Z,23.75
2018-08-31T11:10:49.850Z,23.70
2018-08-31T11:11:49.810Z,23.61
2018-08-31T11:12:49.880Z,23.64
2018-08-31T11:13:49.722Z,23.60
2018-08-31T11:14:49.683Z,23.70
2018-08-31T11:15:49.637Z,23.71
2018-08-31T11:16:49.599Z,23.70
2018-08-31T11:17:49.554Z,23.65
2018-08-31T11:18:49.523Z,23.61
2018-08-31T11:19:49.468Z,23.62
2018-08-31T11:20:49.427Z,23.64
2018-08-31T11:21:49.390Z,23.71
2018-08-31T11:22:49.340Z,23.68
2018-08-31T11:23:49.306Z,23.67
2018-08-31T11:24:49.255Z,23.75
2018-08-31T11:25:49.215Z,23.68
2018-08-31T11:26:49.164Z,23.76
2018-08-31T11:27:49.242Z,23.76
2018-08-31T11:28:49.084Z,23.80
2018-08-31T11:29:49.047Z,23.79
2018-08-31T11:30:49.002Z,23.80
2018-08-31T11:31:48.960Z,23.82
2018-08-31T11:32:48.915Z,23.83
2018-08-31T11:33:48.899Z,23.82
2018-08-31T11:34:48.832Z,23.83
2018-08-31T11:35:48.789Z,23.85
2018-08-31T11:36:48.745Z,23.79
2018-08-31T11:37:48.700Z,23.87
2018-08-31T11:38:48.664Z,23.77
2018-08-31T11:39:48.628Z,23.79
2018-08-31T11:40:48.574Z,23.89
2018-08-31T11:41:48.536Z,23.82
2018-08-31T11:42:48.491Z,23.85
2018-08-31T11:43:48.453Z,23.86
2018-08-31T11:44:48.408Z,23.82
2018-08-31T11:45:48.369Z,23.82
2018-08-31T11:46:48.321Z,23.87
2018-08-31T11:47:48.283Z,23.90
2018-08-31T11:48:48.234Z,23.85
2018-08-31T11:49:48.222Z,23.83
2018-08-31T11:50:48.160Z,23.86
2018-08-31T11:51:48.107Z,23.83
2018-08-31T11:52:48.062Z,23.79
2018-08-31T11:53:48.022Z,23.82
2018-08-31T11:54:47.980Z,23.83
2018-08-31T11:55:47.944Z,23.76
2018-08-31T11:56:47.894Z,23.71
2018-08-31T11:57:47.859Z,23.82
2018-08-31T11:58:47.812Z,23.68
2018-08-31T11:59:47.767Z,23.83
2018-08-31T12:00:47.744Z,23.68
2018-08-31T12:01:47.699Z,23.68
2018-08-31T12:02:47.697Z,23.70
2018-08-31T12:03:47.598Z,23.68
2018-08-31T12:04:47.556Z,23.68
2018-08-31T12:05:47.512Z,23.62
2018-08-31T12:06:47.469Z,23.72
2018-08-31T12:07:47.443Z,23.72
2018-08-31T12:08:47.380Z,23.68
2018-08-31T12:09:47.342Z,23.64
2018-08-31T12:10:47.304Z,23.65
2018-08-31T12:11:47.259Z,23.62
2018-08-31T12:12:47.218Z,23.72
2018-08-31T12:13:47.174Z,23.72
2018-08-31T12:14:47.132Z,23.67
2018-08-31T12:15:47.084Z,23.68
2018-08-31T12:16:47.040Z,23.64
2018-08-31T12:17:47.005Z,23.64
2018-08-31T12:18:46.963Z,23.65
2018-08-31T12:19:46.916Z,23.71
2018-08-31T12:20:46.873Z,23.64
2018-08-31T12:21:46.831Z,23.64
2018-08-31T12:22:46.789Z,23.67
2018-08-31T12:23:46.748Z,23.70
2018-08-31T12:24:46.704Z,23.61
2018-08-31T12:25:46.661Z,23.67
2018-08-31T12:26:46.622Z,23.68
2018-08-31T12:27:46.577Z,23.76
2018-08-31T12:28:46.532Z,23.68
2018-08-31T12:29:46.493Z,23.64
2018-08-31T12:30:46.447Z,23.64
2018-08-31T12:31:46.406Z,23.70
2018-08-31T12:32:46.364Z,23.67
2018-08-31T12:33:46.323Z,23.70
2018-08-31T12:34:46.284Z,23.71
2018-08-31T12:35:46.235Z,23.67
2018-08-31T12:36:46.188Z,23.61
2018-08-31T12:37:46.153Z,23.60
2018-08-31T12:38:46.108Z,23.70
2018-08-31T12:39:46.069Z,23.67
2018-08-31T12:40:46.030Z,23.68
2018-08-31T12:41:45.983Z,23.61
2018-08-31T12:42:45.938Z,23.60
2018-08-31T12:43:45.906Z,23.70
2018-08-31T12:44:45.856Z,23.72
2018-08-31T12:45:45.819Z,23.68
2018-08-31T12:46:45.774Z,23.64
2018-08-31T12:47:45.723Z,23.65
2018-08-31T12:48:45.684Z,23.71
2018-08-31T12:49:45.639Z,23.65
2018-08-31T12:50:45.596Z,23.70
2018-08-31T12:51:45.562Z,23.70
2018-08-31T12:52:45.514Z,23.60